Accueil
METAR-TAF:

METAR-TAF

Aéroports :

Buochs, Suisse

latitude: 46-58-28N, longitude: 8-23-49E, altitude: 449 m

Observation

Le bulletin a été fait il y a 17 minutes, à 03:20 UTC
Vent 2 kt de direction variable
Température 18°C
Humidité 83%
Pression 1014 hPa
Visibilité 10 km ou plus

METAR: LSZC 300320Z AUTO VRB02KT 9999 NCD 18/15 Q1014

Heure: 05:37 (03:37 UTC)

Prévision

Le bulletin a été fait il y a 1 heure et 12 minutes, à 02:25 UTC
Prévision valable du 30 à 03 UTC au 30 à 12 UTC
Vent 2 kt de direction variable
Visibilité 10 km ou plus
Nuages épars à une hauteur de 7000 ft

TAF: LSZC 300225Z 3003/3012 VRB02KT 9999 SCT070

Observations et prévisions météorologiques de plus de 4000 aéroports (messages METAR et TAF).

Les stations disponibles sont représentées par des disques jaunes et rouges sur la carte.

Passer la souris dessus pour voir le nom de la station.

Cliquer dessus pour voir les observations et prévisions météorologiques.

Pour changer de carte: cliquez sur les boutons verts avec une croix noire pour zoomer, sur le bouton vert avec un tiret pour effectuer un zoom arrière, ou sur les flèches vertes pour les cartes adjacentes.


METAR-TAF: